Time;durP1;ratioP1;P1;durP2;ratioP2;P2;SDS_P1;SDS_P2;PMS_P1;PMS_P2;Temp;Humidity;BMP_temperature;BMP_pressure;BME280_temperature;BME280_humidity;BME280_pressure;Samples;Min_cycle;Max_cycle;Signal;HPM_P1;HPM_P2
2023/01/10 00:01:59;;;;;;;13.77;2.97;;;6.00;99.90;;;;;;5100397;28;20485;-63
2023/01/10 00:04:28;;;;;;;10.18;2.33;;;5.90;99.90;;;;;;5101062;28;20476;-63
2023/01/10 00:06:54;;;;;;;7.43;1.90;;;5.90;99.90;;;;;;5104690;28;20027;-63
2023/01/10 00:09:20;;;;;;;7.25;1.85;;;5.90;99.90;;;;;;5104176;28;20043;-63
2023/01/10 00:14:32;;;;;;;12.13;3.08;;;5.90;99.90;;;;;;5093923;28;20119;-63
2023/01/10 00:16:57;;;;;;;11.15;4.15;;;5.90;99.90;;;;;;5101248;28;20605;-63
2023/01/10 00:19:23;;;;;;;11.25;2.28;;;5.90;99.90;;;;;;5098344;28;20024;-63
2023/01/10 00:21:48;;;;;;;7.72;2.08;;;6.00;99.90;;;;;;5100474;27;20477;-63
2023/01/10 00:24:22;;;;;;;6.65;1.83;;;5.90;99.90;;;;;;5099676;28;20469;-63
2023/01/10 00:26:52;;;;;;;6.85;1.90;;;6.00;99.90;;;;;;5098793;28;20028;-63
2023/01/10 00:29:21;;;;;;;6.47;1.83;;;5.90;99.90;;;;;;5096875;28;20015;-63
2023/01/10 00:31:47;;;;;;;8.93;1.98;;;5.90;99.90;;;;;;5103824;28;20095;-63
2023/01/10 00:34:13;;;;;;;6.43;1.58;;;5.90;99.90;;;;;;5092129;28;20532;-63
2023/01/10 00:36:39;;;;;;;10.38;1.70;;;5.80;99.90;;;;;;5097658;28;20103;-63
2023/01/10 00:39:04;;;;;;;9.50;2.00;;;5.80;99.90;;;;;;5085912;28;20468;-63
2023/01/10 00:44:14;;;;;;;5.55;1.40;;;5.80;99.90;;;;;;5106804;28;20391;-63
2023/01/10 00:46:40;;;;;;;8.73;2.08;;;5.80;99.90;;;;;;5105249;28;20094;-63
2023/01/10 00:49:07;;;;;;;10.65;1.42;;;5.80;99.90;;;;;;5104552;28;20103;-63
2023/01/10 00:51:32;;;;;;;9.65;2.25;;;5.80;99.90;;;;;;5101739;28;20494;-63
2023/01/10 00:53:58;;;;;;;11.57;2.03;;;5.80;99.90;;;;;;5108850;28;20088;-63
2023/01/10 00:56:23;;;;;;;11.55;2.30;;;5.70;99.90;;;;;;5078542;28;20487;-63
2023/01/10 00:58:49;;;;;;;9.43;2.00;;;5.70;99.90;;;;;;5098833;27;20024;-63
2023/01/10 01:01:14;;;;;;;16.95;2.88;;;5.70;99.90;;;;;;5104468;28;20015;-63
2023/01/10 01:03:40;;;;;;;11.40;1.95;;;5.60;99.90;;;;;;5098373;28;20024;-63
2023/01/10 01:06:06;;;;;;;8.77;1.58;;;5.70;99.90;;;;;;5103083;28;20024;-63
2023/01/10 01:08:32;;;;;;;5.30;1.77;;;5.60;99.90;;;;;;5101790;28;20047;-63
2023/01/10 01:10:57;;;;;;;10.43;2.10;;;5.60;99.90;;;;;;5105941;28;20492;-63
2023/01/10 01:13:23;;;;;;;14.13;2.17;;;5.50;99.90;;;;;;5105535;28;20034;-63
2023/01/10 01:15:49;;;;;;;14.45;2.15;;;5.60;99.90;;;;;;5093477;28;20465;-63
2023/01/10 01:18:17;;;;;;;11.75;2.72;;;5.60;99.90;;;;;;5106323;28;20056;-63
2023/01/10 01:20:44;;;;;;;9.77;1.85;;;5.60;99.90;;;;;;5108811;28;20085;-63
2023/01/10 01:23:10;;;;;;;11.70;1.83;;;5.60;99.90;;;;;;5106172;28;20020;-63
2023/01/10 01:25:36;;;;;;;14.55;1.80;;;5.60;99.90;;;;;;5102586;28;20102;-63
2023/01/10 01:28:02;;;;;;;10.88;2.10;;;5.60;99.90;;;;;;5106022;28;20110;-63
2023/01/10 01:30:28;;;;;;;12.55;2.10;;;5.60;99.90;;;;;;5102036;28;20016;-63
2023/01/10 01:32:54;;;;;;;10.52;1.95;;;5.60;99.90;;;;;;5104272;28;20032;-63
2023/01/10 01:35:19;;;;;;;12.05;1.60;;;5.60;99.90;;;;;;5101071;28;20455;-63
2023/01/10 01:37:45;;;;;;;9.98;1.60;;;5.60;99.90;;;;;;5103211;28;20042;-63
2023/01/10 01:40:16;;;;;;;12.93;2.38;;;5.60;99.90;;;;;;5102469;28;20016;-63
2023/01/10 01:42:43;;;;;;;10.52;1.98;;;5.60;99.90;;;;;;5102884;28;20031;-63
2023/01/10 01:45:08;;;;;;;16.67;2.33;;;5.60;99.90;;;;;;5096207;28;20031;-63
2023/01/10 01:47:47;;;;;;;10.05;1.70;;;5.70;99.90;;;;;;5097303;28;20028;-63
2023/01/10 01:50:31;;;;;;;16.77;3.83;;;5.70;99.90;;;;;;5096836;28;20102;-63
2023/01/10 01:53:01;;;;;;;8.50;1.83;;;5.80;99.90;;;;;;5080852;28;20063;-63
2023/01/10 01:55:29;;;;;;;13.50;1.70;;;5.70;99.90;;;;;;5101124;28;20015;-63
2023/01/10 01:57:57;;;;;;;8.82;1.40;;;5.70;99.90;;;;;;5104771;28;20024;-63
2023/01/10 02:00:23;;;;;;;9.95;2.13;;;5.70;99.90;;;;;;5102207;28;20065;-63
2023/01/10 02:02:52;;;;;;;11.63;1.70;;;5.70;99.90;;;;;;5100388;28;20027;-63
2023/01/10 02:05:23;;;;;;;16.83;2.40;;;5.70;99.90;;;;;;5099423;28;20078;-63
2023/01/10 02:07:53;;;;;;;11.25;1.75;;;5.80;99.90;;;;;;5105944;28;20482;-63
2023/01/10 02:10:51;;;;;;;8.30;1.42;;;5.80;99.90;;;;;;5084564;28;20023;-63
2023/01/10 02:13:21;;;;;;;9.68;1.77;;;5.80;99.90;;;;;;5103369;28;20393;-63
2023/01/10 02:15:46;;;;;;;8.60;1.35;;;5.80;99.90;;;;;;5097463;28;20070;-64
2023/01/10 02:18:13;;;;;;;11.52;1.95;;;5.80;99.90;;;;;;5118138;27;20488;-63
2023/01/10 02:21:06;;;;;;;14.45;1.98;;;5.80;99.90;;;;;;5104177;28;20385;-63
2023/01/10 02:23:59;;;;;;;9.70;1.60;;;5.80;99.90;;;;;;5101510;28;20028;-63
2023/01/10 02:27:02;;;;;;;9.38;1.33;;;5.80;99.90;;;;;;5100911;28;20024;-63
2023/01/10 02:30:10;;;;;;;13.15;2.15;;;5.80;99.90;;;;;;5099628;28;20058;-63
2023/01/10 02:32:47;;;;;;;15.43;2.95;;;5.80;99.90;;;;;;5105856;28;20020;-63
2023/01/10 02:35:19;;;;;;;11.50;2.05;;;5.80;99.90;;;;;;5097594;28;20505;-63
2023/01/10 02:37:52;;;;;;;16.70;3.08;;;5.80;99.90;;;;;;5084656;28;20028;-63
2023/01/10 02:40:25;;;;;;;14.35;2.72;;;5.90;99.90;;;;;;5101403;28;20020;-63
2023/01/10 02:43:24;;;;;;;13.63;3.60;;;5.90;99.90;;;;;;5106345;28;20073;-63
2023/01/10 02:46:04;;;;;;;14.30;2.78;;;5.90;99.90;;;;;;5101546;28;20036;-63
2023/01/10 02:48:30;;;;;;;12.60;2.08;;;5.90;99.90;;;;;;5097769;28;20089;-63
2023/01/10 02:51:17;;;;;;;14.23;3.05;;;5.80;99.90;;;;;;5098181;28;20431;-63
2023/01/10 02:53:53;;;;;;;15.82;2.70;;;5.80;99.90;;;;;;5118155;27;20023;-63
2023/01/10 02:56:52;;;;;;;11.85;1.90;;;5.80;99.90;;;;;;5105316;27;20028;-63
2023/01/10 02:59:41;;;;;;;11.90;2.05;;;5.90;99.90;;;;;;5089510;28;20043;-63
2023/01/10 03:02:15;;;;;;;12.07;2.10;;;5.80;99.90;;;;;;5090132;28;20024;-63
2023/01/10 03:05:07;;;;;;;16.10;3.17;;;5.80;99.90;;;;;;5095014;28;20023;-63
2023/01/10 03:08:14;;;;;;;10.77;2.28;;;5.80;99.90;;;;;;5074306;28;20063;-63
2023/01/10 03:10:58;;;;;;;12.43;2.60;;;5.80;99.90;;;;;;5087077;28;20036;-63
2023/01/10 03:13:35;;;;;;;9.63;3.33;;;5.80;99.90;;;;;;5089317;28;20480;-64
2023/01/10 03:16:03;;;;;;;8.98;2.75;;;5.80;99.90;;;;;;5092602;28;20469;-63
2023/01/10 03:18:57;;;;;;;15.45;3.25;;;5.90;99.90;;;;;;5074247;28;20027;-63
2023/01/10 03:21:26;;;;;;;12.35;2.90;;;5.90;99.90;;;;;;5056801;28;20036;-63
2023/01/10 03:23:57;;;;;;;11.75;4.20;;;5.90;99.90;;;;;;5092837;28;20473;-63
2023/01/10 03:26:44;;;;;;;14.90;4.50;;;5.90;99.90;;;;;;5093199;28;20036;-63
2023/01/10 03:29:11;;;;;;;10.98;3.30;;;6.00;99.90;;;;;;5092341;28;20028;-63
2023/01/10 03:31:45;;;;;;;18.17;4.68;;;6.00;99.90;;;;;;5072768;28;20670;-63
2023/01/10 03:34:11;;;;;;;13.63;3.78;;;6.00;99.90;;;;;;5113233;27;20036;-63
2023/01/10 03:36:56;;;;;;;11.13;3.60;;;6.00;99.90;;;;;;5089303;28;20049;-63
2023/01/10 03:39:30;;;;;;;11.93;3.50;;;6.00;99.90;;;;;;5098413;28;20016;-63
2023/01/10 03:42:05;;;;;;;16.73;3.95;;;6.00;99.90;;;;;;5071324;28;20046;-63
2023/01/10 03:44:42;;;;;;;12.88;4.00;;;6.00;99.90;;;;;;5092016;28;20203;-63
2023/01/10 03:47:24;;;;;;;15.00;5.03;;;6.00;99.90;;;;;;5079924;28;20031;-63
2023/01/10 03:49:55;;;;;;;14.55;3.63;;;6.00;99.90;;;;;;5096276;28;20026;-63
2023/01/10 03:52:22;;;;;;;18.38;4.15;;;6.00;99.90;;;;;;5110008;27;20051;-63
2023/01/10 03:54:47;;;;;;;16.67;4.82;;;6.00;99.90;;;;;;5111974;27;20016;-63
2023/01/10 03:57:31;;;;;;;19.65;3.72;;;6.00;99.90;;;;;;5109837;28;20510;-63
2023/01/10 03:59:58;;;;;;;14.43;3.90;;;6.10;99.90;;;;;;5110235;28;20026;-63
2023/01/10 04:02:29;;;;;;;16.67;5.15;;;6.00;99.90;;;;;;5107001;28;20022;-63
2023/01/10 04:04:55;;;;;;;20.25;4.38;;;6.00;99.90;;;;;;5106313;27;20046;-63
2023/01/10 04:07:21;;;;;;;12.23;3.58;;;6.00;99.90;;;;;;5109664;28;20512;-63
2023/01/10 04:09:46;;;;;;;12.52;3.67;;;6.00;99.90;;;;;;5107045;28;20496;-63
2023/01/10 04:12:12;;;;;;;12.43;3.20;;;6.00;99.90;;;;;;5111002;28;20023;-63
2023/01/10 04:14:37;;;;;;;15.27;3.30;;;5.90;99.90;;;;;;5106964;28;20041;-63
2023/01/10 04:17:03;;;;;;;20.25;4.70;;;5.90;99.90;;;;;;5109375;28;20015;-63
2023/01/10 04:19:28;;;;;;;17.00;3.92;;;5.90;99.90;;;;;;5107492;28;20020;-63
2023/01/10 04:21:54;;;;;;;15.05;3.90;;;5.90;99.90;;;;;;5090833;28;20046;-63
2023/01/10 04:24:20;;;;;;;11.60;3.28;;;6.00;99.90;;;;;;5107203;28;20500;-63
2023/01/10 04:26:45;;;;;;;14.85;3.25;;;6.00;99.90;;;;;;5106930;28;20020;-63
2023/01/10 04:29:11;;;;;;;13.88;2.88;;;5.90;99.90;;;;;;5111564;28;20377;-63
2023/01/10 04:31:38;;;;;;;16.02;3.80;;;6.00;99.90;;;;;;5106940;28;20467;-63
2023/01/10 04:34:04;;;;;;;15.98;3.42;;;6.00;99.90;;;;;;5107504;28;20020;-63
2023/01/10 04:36:30;;;;;;;17.75;3.85;;;6.00;99.90;;;;;;5105098;28;20069;-63
2023/01/10 04:38:55;;;;;;;17.98;4.10;;;6.00;99.90;;;;;;5108451;28;20027;-63
2023/01/10 04:41:21;;;;;;;9.70;2.92;;;6.00;99.90;;;;;;5109517;28;20094;-63
2023/01/10 04:43:48;;;;;;;19.58;4.03;;;6.00;99.90;;;;;;5091839;28;20111;-63
2023/01/10 04:46:14;;;;;;;17.15;3.03;;;6.00;99.90;;;;;;5089017;28;20049;-63
2023/01/10 04:48:39;;;;;;;10.93;3.08;;;6.10;99.90;;;;;;5090032;28;20103;-63
2023/01/10 04:51:05;;;;;;;18.13;4.03;;;6.10;99.90;;;;;;5107783;28;20504;-63
2023/01/10 04:53:30;;;;;;;12.20;2.90;;;6.10;99.90;;;;;;5109525;28;20081;-63
2023/01/10 04:56:04;;;;;;;15.18;3.10;;;6.10;99.90;;;;;;5106832;28;20074;-63
2023/01/10 04:58:35;;;;;;;14.13;3.20;;;6.10;99.90;;;;;;5079014;28;20027;-63
2023/01/10 05:01:07;;;;;;;13.02;2.97;;;6.10;99.90;;;;;;5107914;28;20015;-63
2023/01/10 05:03:33;;;;;;;14.32;3.42;;;6.10;99.90;;;;;;5111012;28;20012;-63
2023/01/10 05:05:58;;;;;;;16.17;3.70;;;6.10;99.90;;;;;;5108163;28;20114;-63
2023/01/10 05:08:24;;;;;;;17.75;3.80;;;6.20;99.90;;;;;;5110714;28;20068;-63
2023/01/10 05:10:49;;;;;;;17.83;3.63;;;6.20;99.90;;;;;;5107058;28;20548;-63
2023/01/10 05:13:14;;;;;;;18.35;3.38;;;6.20;99.90;;;;;;5109808;28;20032;-63
2023/01/10 05:15:40;;;;;;;14.55;3.30;;;6.20;99.90;;;;;;5108689;28;20851;-63
2023/01/10 05:18:05;;;;;;;20.58;3.88;;;6.10;99.90;;;;;;5110807;28;20065;-63
2023/01/10 05:20:31;;;;;;;17.95;3.17;;;6.20;99.90;;;;;;5107014;28;20095;-63
2023/01/10 05:22:56;;;;;;;16.40;4.13;;;6.10;99.90;;;;;;5108744;28;20099;-63
2023/01/10 05:25:22;;;;;;;13.95;3.80;;;6.10;99.90;;;;;;5090673;28;20357;-63
2023/01/10 05:27:47;;;;;;;23.60;3.50;;;6.10;99.90;;;;;;5110838;28;20515;-63
2023/01/10 05:30:13;;;;;;;17.55;3.78;;;6.10;99.90;;;;;;5091665;28;20512;-63
2023/01/10 05:32:39;;;;;;;20.23;3.25;;;6.10;99.90;;;;;;5111852;28;20050;-63
2023/01/10 05:35:05;;;;;;;16.25;3.92;;;6.00;99.90;;;;;;5094408;28;20024;-63
2023/01/10 05:37:31;;;;;;;21.42;3.35;;;6.00;99.90;;;;;;5111898;28;20050;-64
2023/01/10 05:39:57;;;;;;;10.68;3.00;;;6.00;99.90;;;;;;5113251;28;20048;-63
2023/01/10 05:42:22;;;;;;;17.45;3.35;;;6.00;99.90;;;;;;5113567;28;20020;-63
2023/01/10 05:44:47;;;;;;;18.15;3.20;;;6.00;99.90;;;;;;5110924;28;20020;-63
2023/01/10 05:47:13;;;;;;;22.90;3.97;;;6.10;99.90;;;;;;5114443;28;20031;-63
2023/01/10 05:49:38;;;;;;;16.25;3.47;;;6.10;99.90;;;;;;5081252;28;20027;-63
2023/01/10 05:52:04;;;;;;;20.27;4.60;;;6.10;99.90;;;;;;5113213;28;20089;-63
2023/01/10 05:54:30;;;;;;;20.92;4.13;;;6.10;99.90;;;;;;5111879;28;20393;-63
2023/01/10 05:56:55;;;;;;;18.25;3.55;;;6.10;99.90;;;;;;5111693;28;20031;-63
2023/01/10 05:59:21;;;;;;;20.05;3.38;;;6.10;99.90;;;;;;5112680;28;20472;-63
2023/01/10 06:01:47;;;;;;;22.80;4.10;;;6.10;99.90;;;;;;5112241;28;20023;-63
2023/01/10 06:04:12;;;;;;;23.08;4.15;;;6.10;99.90;;;;;;5111061;28;20629;-63
2023/01/10 06:06:38;;;;;;;17.63;3.47;;;6.10;99.90;;;;;;5113609;28;20557;-63
2023/01/10 06:09:03;;;;;;;20.08;4.30;;;6.10;99.90;;;;;;5112363;28;20036;-63
2023/01/10 06:11:29;;;;;;;15.98;3.10;;;6.10;99.90;;;;;;5111904;27;20017;-63
2023/01/10 06:13:56;;;;;;;16.13;4.05;;;6.10;99.90;;;;;;5111247;28;20069;-63
2023/01/10 06:16:22;;;;;;;15.70;3.70;;;6.10;99.90;;;;;;5095069;28;20028;-63
2023/01/10 06:18:47;;;;;;;18.85;4.18;;;6.10;99.90;;;;;;5109584;28;20077;-63
2023/01/10 06:21:13;;;;;;;22.73;4.63;;;6.10;99.90;;;;;;5121750;27;20027;-62
2023/01/10 06:23:38;;;;;;;18.67;3.78;;;6.10;99.90;;;;;;5079180;28;20054;-62
2023/01/10 06:26:04;;;;;;;22.20;4.10;;;6.10;99.90;;;;;;5103928;28;20031;-62
2023/01/10 06:28:30;;;;;;;15.40;3.70;;;6.10;99.90;;;;;;5104362;28;20023;-62
2023/01/10 06:30:55;;;;;;;21.80;3.53;;;6.10;99.90;;;;;;5109549;28;20024;-62
2023/01/10 06:33:21;;;;;;;21.25;3.97;;;6.10;99.90;;;;;;5098604;28;21200;-62
2023/01/10 06:35:47;;;;;;;26.83;3.75;;;6.10;99.90;;;;;;5077572;28;20028;-63
2023/01/10 06:38:14;;;;;;;20.00;3.83;;;6.10;99.90;;;;;;5088169;28;20072;-63
2023/01/10 06:40:39;;;;;;;14.82;3.40;;;6.10;99.90;;;;;;5112330;28;20027;-62
2023/01/10 06:43:05;;;;;;;21.00;3.22;;;6.20;99.90;;;;;;5102501;28;20019;-63
2023/01/10 06:45:30;;;;;;;21.42;3.15;;;6.10;99.90;;;;;;5113579;28;20045;-62
2023/01/10 06:47:56;;;;;;;21.92;3.25;;;6.20;99.90;;;;;;5114469;28;20385;-62
2023/01/10 06:50:22;;;;;;;18.88;4.45;;;6.20;99.90;;;;;;5111580;27;20042;-62
2023/01/10 06:52:57;;;;;;;21.70;4.40;;;6.20;99.90;;;;;;5076070;28;20477;-63
2023/01/10 06:55:24;;;;;;;19.52;3.78;;;6.20;99.90;;;;;;5094057;28;20020;-62
2023/01/10 06:57:57;;;;;;;14.23;3.25;;;6.20;99.90;;;;;;5094169;28;20064;-63
2023/01/10 07:00:24;;;;;;;22.75;4.07;;;6.30;99.90;;;;;;5076477;28;20020;-62
2023/01/10 07:02:50;;;;;;;25.85;4.35;;;6.20;99.90;;;;;;5089434;28;20017;-62
2023/01/10 07:05:15;;;;;;;17.10;3.70;;;6.20;99.90;;;;;;5094183;28;20030;-63
2023/01/10 07:07:41;;;;;;;20.77;2.92;;;6.20;99.90;;;;;;5075588;28;20043;-62
2023/01/10 07:10:07;;;;;;;22.50;3.58;;;6.20;99.90;;;;;;5098334;28;20427;-62
2023/01/10 07:12:33;;;;;;;20.75;3.22;;;6.20;99.90;;;;;;5088599;28;20024;-63
2023/01/10 07:14:58;;;;;;;18.42;3.67;;;6.20;99.90;;;;;;5117638;27;20058;-62
2023/01/10 07:17:25;;;;;;;13.98;2.92;;;6.20;99.90;;;;;;5093202;28;20043;-62
2023/01/10 07:19:50;;;;;;;19.45;3.33;;;6.20;99.90;;;;;;5093965;28;20095;-63
2023/01/10 07:22:16;;;;;;;17.20;3.38;;;6.20;99.90;;;;;;5093439;28;20038;-62
2023/01/10 07:24:41;;;;;;;19.88;4.20;;;6.20;99.90;;;;;;5093857;28;20403;-62
2023/01/10 07:27:07;;;;;;;22.40;3.38;;;6.10;99.90;;;;;;5093718;28;20472;-63
2023/01/10 07:29:32;;;;;;;24.92;3.35;;;6.10;99.90;;;;;;5093617;28;20028;-62
2023/01/10 07:31:58;;;;;;;20.95;4.25;;;6.10;99.90;;;;;;5075147;28;20048;-62
2023/01/10 07:34:23;;;;;;;24.75;3.63;;;6.10;99.90;;;;;;5093337;28;20034;-63
2023/01/10 07:36:49;;;;;;;23.40;3.80;;;6.00;99.90;;;;;;5093256;28;20077;-63
2023/01/10 07:39:14;;;;;;;23.98;3.90;;;6.00;99.90;;;;;;5105376;28;20083;-62
2023/01/10 07:41:40;;;;;;;23.88;4.95;;;5.90;99.90;;;;;;5094774;28;20020;-63
2023/01/10 07:44:05;;;;;;;19.67;3.80;;;5.90;99.90;;;;;;5093561;28;20088;-62
2023/01/10 07:46:31;;;;;;;20.25;4.75;;;5.90;99.90;;;;;;5075238;28;20533;-62
2023/01/10 07:48:56;;;;;;;22.88;3.90;;;5.80;99.90;;;;;;5092934;28;20032;-62
2023/01/10 07:51:22;;;;;;;18.00;3.60;;;5.80;99.90;;;;;;5074848;28;20110;-63
2023/01/10 07:53:48;;;;;;;21.10;3.70;;;5.80;99.90;;;;;;5093757;28;20024;-63
2023/01/10 07:56:13;;;;;;;19.98;4.15;;;5.80;99.90;;;;;;5092570;28;20488;-63
2023/01/10 07:58:39;;;;;;;18.33;3.42;;;5.70;99.90;;;;;;5104238;28;20028;-63
2023/01/10 08:01:06;;;;;;;20.35;3.63;;;5.70;99.90;;;;;;5108800;28;20077;-63
2023/01/10 08:03:32;;;;;;;15.55;3.47;;;5.70;99.90;;;;;;5111770;28;20382;-63
2023/01/10 08:06:05;;;;;;;21.23;3.17;;;5.70;99.90;;;;;;5095605;28;20028;-63
2023/01/10 08:08:32;;;;;;;22.00;3.20;;;5.70;99.90;;;;;;5092909;28;20047;-63
2023/01/10 08:11:03;;;;;;;22.05;3.40;;;5.70;99.90;;;;;;5109161;28;20396;-63
2023/01/10 08:13:30;;;;;;;28.90;3.47;;;5.80;99.90;;;;;;5111778;28;20377;-63
2023/01/10 08:15:56;;;;;;;19.10;3.60;;;5.80;99.90;;;;;;5107820;28;20032;-63
2023/01/10 08:18:22;;;;;;;29.02;3.80;;;5.80;99.90;;;;;;5105424;27;20020;-63
2023/01/10 08:20:49;;;;;;;14.18;3.05;;;5.90;99.90;;;;;;5124211;27;20016;-63
2023/01/10 08:23:16;;;;;;;14.75;2.85;;;5.90;99.90;;;;;;5096681;28;20020;-63
2023/01/10 08:25:42;;;;;;;23.33;3.83;;;6.00;99.90;;;;;;5086952;28;20035;-63
2023/01/10 08:28:07;;;;;;;15.77;3.50;;;6.00;99.90;;;;;;5102665;28;20106;-63
2023/01/10 08:30:33;;;;;;;22.58;4.13;;;6.00;99.90;;;;;;5100246;28;20028;-63
2023/01/10 08:33:02;;;;;;;21.40;4.13;;;6.10;99.90;;;;;;5098476;28;20024;-63
2023/01/10 08:35:27;;;;;;;17.00;3.83;;;6.10;99.90;;;;;;5097184;28;20109;-63
2023/01/10 08:37:57;;;;;;;18.15;3.00;;;6.20;99.90;;;;;;5105848;28;20057;-63
2023/01/10 08:40:23;;;;;;;16.08;3.63;;;6.20;99.90;;;;;;5098004;28;20028;-63
2023/01/10 08:42:56;;;;;;;18.08;2.80;;;6.10;99.90;;;;;;5099152;28;20031;-63
2023/01/10 08:45:22;;;;;;;20.42;3.63;;;6.20;99.90;;;;;;5097738;28;20028;-62
2023/01/10 08:47:47;;;;;;;30.58;4.63;;;6.20;99.90;;;;;;5097539;28;20032;-62
2023/01/10 08:50:13;;;;;;;17.15;3.40;;;6.20;99.90;;;;;;5100118;28;20430;-62
2023/01/10 08:52:38;;;;;;;23.13;4.10;;;6.20;99.90;;;;;;5097046;28;20070;-62
2023/01/10 08:55:04;;;;;;;22.27;4.10;;;6.20;99.90;;;;;;5101818;28;20028;-62
2023/01/10 08:57:31;;;;;;;24.13;3.70;;;6.10;99.90;;;;;;5100319;28;20077;-62
2023/01/10 08:59:56;;;;;;;27.98;4.25;;;6.10;99.90;;;;;;5108242;28;20457;-62
2023/01/10 09:02:22;;;;;;;17.98;3.88;;;6.10;99.90;;;;;;5101568;28;20098;-61
2023/01/10 09:04:47;;;;;;;22.20;3.95;;;6.10;99.90;;;;;;5100148;28;20028;-62
2023/01/10 09:07:13;;;;;;;34.30;5.00;;;6.10;99.90;;;;;;5102028;28;20020;-62
2023/01/10 09:09:38;;;;;;;16.17;3.28;;;6.10;99.90;;;;;;5091169;28;20119;-62
2023/01/10 09:12:53;;;;;;;26.70;4.32;;;6.10;99.90;;;;;;5106550;28;20582;-62
2023/01/10 09:14:50;;;;;;;19.10;4.32;;;6.10;99.90;;;;;;5104562;28;20024;-62
2023/01/10 09:17:15;;;;;;;16.95;3.30;;;6.10;99.90;;;;;;5104434;28;20540;-62
2023/01/10 09:19:41;;;;;;;21.63;4.68;;;6.10;99.90;;;;;;5102174;28;20041;-62
2023/01/10 09:22:06;;;;;;;22.35;3.42;;;6.10;99.90;;;;;;5118980;27;20023;-62
2023/01/10 09:24:31;;;;;;;21.55;4.05;;;6.10;99.90;;;;;;5103823;28;20059;-62
2023/01/10 09:26:57;;;;;;;24.52;3.95;;;6.10;99.90;;;;;;5098414;28;20016;-62
2023/01/10 09:29:23;;;;;;;23.70;4.50;;;6.10;99.90;;;;;;5081600;28;20075;-62
2023/01/10 09:31:48;;;;;;;22.67;3.50;;;6.10;99.90;;;;;;5075781;28;20024;-63
2023/01/10 09:34:14;;;;;;;23.52;4.05;;;6.10;99.90;;;;;;5106883;28;20076;-62
2023/01/10 09:36:39;;;;;;;22.35;4.55;;;6.10;99.90;;;;;;5100723;28;20016;-62
2023/01/10 09:39:05;;;;;;;21.05;3.67;;;6.10;99.90;;;;;;5104660;28;20024;-62
2023/01/10 09:42:01;;;;;;;21.88;3.88;;;6.10;99.90;;;;;;5100979;28;20376;-63
2023/01/10 09:44:52;;;;;;;19.25;3.35;;;6.10;99.90;;;;;;5101084;28;20011;-63
2023/01/10 09:47:33;;;;;;;21.90;3.65;;;6.10;99.90;;;;;;5101241;28;20043;-62
2023/01/10 09:50:19;;;;;;;21.27;3.90;;;6.10;99.90;;;;;;5100467;28;20020;-63
2023/01/10 09:53:11;;;;;;;18.02;3.53;;;6.10;99.90;;;;;;5107918;27;20023;-62
2023/01/10 09:55:37;;;;;;;19.33;4.55;;;6.10;99.90;;;;;;5111437;28;20015;-62
2023/01/10 09:58:15;;;;;;;16.80;3.08;;;6.10;99.90;;;;;;5111718;28;20027;-63
2023/01/10 10:00:43;;;;;;;18.45;4.30;;;6.10;99.90;;;;;;5109026;28;20016;-62
2023/01/10 10:03:44;;;;;;;22.10;3.95;;;6.10;99.90;;;;;;5111823;28;20502;-62
2023/01/10 10:06:13;;;;;;;17.52;3.60;;;6.20;99.90;;;;;;5105832;28;20038;-63
2023/01/10 10:08:44;;;;;;;22.02;4.93;;;6.20;99.90;;;;;;5102158;28;20040;-62
2023/01/10 10:11:24;;;;;;;19.17;3.40;;;6.20;99.90;;;;;;5103793;28;20032;-62
2023/01/10 10:13:58;;;;;;;18.40;3.42;;;6.20;99.90;;;;;;5108254;28;20024;-62
2023/01/10 10:16:57;;;;;;;22.40;3.53;;;6.30;99.90;;;;;;5113213;28;20024;-62
2023/01/10 10:19:53;;;;;;;18.05;4.03;;;6.30;99.90;;;;;;5108600;28;20094;-62
2023/01/10 10:22:40;;;;;;;20.50;3.42;;;6.40;99.90;;;;;;5098162;28;20012;-63
2023/01/10 10:25:24;;;;;;;22.92;3.72;;;6.40;99.90;;;;;;5091956;27;20121;-62
2023/01/10 10:28:13;;;;;;;23.05;4.35;;;6.40;99.90;;;;;;5110331;28;20046;-63
2023/01/10 10:31:22;;;;;;;18.38;3.28;;;6.40;99.90;;;;;;5111641;28;20462;-62
2023/01/10 10:33:58;;;;;;;20.30;3.50;;;6.40;99.90;;;;;;5048515;28;20627;-62
2023/01/10 10:36:34;;;;;;;14.23;3.03;;;6.40;99.90;;;;;;5104527;28;20042;-62
2023/01/10 10:39:01;;;;;;;21.77;3.35;;;6.40;99.90;;;;;;5108545;28;20484;-62
2023/01/10 10:41:33;;;;;;;20.42;4.53;;;6.40;99.90;;;;;;5093360;28;20026;-62
2023/01/10 10:44:03;;;;;;;14.77;3.47;;;6.50;99.90;;;;;;5093290;28;20069;-63
2023/01/10 10:46:30;;;;;;;20.88;3.70;;;6.50;99.90;;;;;;5108959;28;20393;-62
2023/01/10 10:49:00;;;;;;;17.33;3.00;;;6.50;99.90;;;;;;5110248;28;20054;-62
2023/01/10 10:51:50;;;;;;;19.50;3.42;;;6.50;99.90;;;;;;5111689;28;20061;-62
2023/01/10 10:54:15;;;;;;;18.30;2.85;;;6.60;99.90;;;;;;5109762;28;20032;-62
2023/01/10 10:56:42;;;;;;;20.75;4.53;;;6.60;99.90;;;;;;5093249;28;20069;-62
2023/01/10 10:59:09;;;;;;;15.20;2.92;;;6.60;99.90;;;;;;5111949;27;20134;-62
2023/01/10 11:01:35;;;;;;;23.92;3.38;;;6.60;99.90;;;;;;5109826;28;20016;-62
2023/01/10 11:04:07;;;;;;;22.15;3.75;;;6.60;99.90;;;;;;5091258;28;20019;-62
2023/01/10 11:06:37;;;;;;;20.75;3.00;;;6.60;99.90;;;;;;5090845;28;20480;-62
2023/01/10 11:09:04;;;;;;;20.02;3.17;;;6.60;99.90;;;;;;5107410;28;20047;-62
2023/01/10 11:11:37;;;;;;;18.35;3.03;;;6.60;99.90;;;;;;5106194;28;20019;-62
2023/01/10 11:14:05;;;;;;;24.83;5.60;;;6.60;99.90;;;;;;5111213;28;20032;-62
2023/01/10 11:16:35;;;;;;;19.67;4.03;;;6.70;99.90;;;;;;5111551;28;20039;-62
2023/01/10 11:19:20;;;;;;;20.58;3.65;;;6.60;99.90;;;;;;5106720;28;20017;-62
2023/01/10 11:21:54;;;;;;;20.65;3.60;;;6.70;99.90;;;;;;5104970;28;20076;-62
2023/01/10 11:24:25;;;;;;;13.50;3.03;;;6.60;99.90;;;;;;5110270;28;20091;-62
2023/01/10 11:26:51;;;;;;;22.88;3.33;;;6.60;99.90;;;;;;5089270;28;20055;-62
2023/01/10 11:29:31;;;;;;;21.23;4.65;;;6.70;99.90;;;;;;5105116;28;20028;-62
2023/01/10 11:31:56;;;;;;;26.45;3.15;;;6.70;99.90;;;;;;5122296;27;20404;-62
2023/01/10 11:34:31;;;;;;;18.13;3.10;;;6.70;99.90;;;;;;5103584;28;20027;-62
2023/01/10 11:36:59;;;;;;;15.10;3.47;;;6.70;99.90;;;;;;5104794;28;20024;-62
2023/01/10 11:39:26;;;;;;;17.95;3.75;;;6.80;99.90;;;;;;5109381;28;20500;-63
2023/01/10 11:41:54;;;;;;;19.48;2.63;;;6.80;99.90;;;;;;5094002;28;20107;-62
2023/01/10 11:44:28;;;;;;;29.30;4.35;;;6.80;99.90;;;;;;5104850;28;20385;-62
2023/01/10 11:47:00;;;;;;;16.45;3.35;;;6.80;99.90;;;;;;5100451;28;20396;-62
2023/01/10 11:49:40;;;;;;;29.20;3.92;;;6.80;99.90;;;;;;5109132;28;20103;-62
2023/01/10 11:52:21;;;;;;;22.02;4.57;;;6.70;99.90;;;;;;5092806;28;20028;-62
2023/01/10 11:54:47;;;;;;;25.90;4.30;;;6.70;99.90;;;;;;5104273;28;20378;-63
2023/01/10 11:57:19;;;;;;;22.27;3.15;;;6.70;99.90;;;;;;5120449;27;20486;-62
2023/01/10 12:00:03;;;;;;;19.17;3.83;;;6.70;99.90;;;;;;5094596;28;20035;-62
2023/01/10 12:02:56;;;;;;;22.27;3.88;;;6.70;99.90;;;;;;5092578;28;20048;-62
2023/01/10 12:05:22;;;;;;;16.25;3.55;;;6.80;99.90;;;;;;5072437;28;20090;-62
2023/01/10 12:07:54;;;;;;;18.77;4.18;;;6.80;99.90;;;;;;5092460;28;20055;-62
2023/01/10 12:10:22;;;;;;;22.42;3.63;;;6.80;99.90;;;;;;5074833;28;20420;-62
2023/01/10 12:13:06;;;;;;;25.83;4.65;;;6.80;99.90;;;;;;5092368;28;20023;-62
2023/01/10 12:15:33;;;;;;;32.90;4.00;;;6.80;99.90;;;;;;5092968;28;20044;-63
2023/01/10 12:18:01;;;;;;;22.38;4.05;;;6.80;99.90;;;;;;5098430;28;20373;-62
2023/01/10 12:20:30;;;;;;;20.95;4.30;;;6.80;99.90;;;;;;5089833;28;20026;-62
2023/01/10 12:23:02;;;;;;;19.27;3.70;;;6.80;99.90;;;;;;5109060;28;20618;-62
2023/01/10 12:25:37;;;;;;;17.02;3.75;;;6.80;99.90;;;;;;5105498;28;20480;-63
2023/01/10 12:28:03;;;;;;;29.48;4.78;;;6.80;99.90;;;;;;5110593;28;20092;-62
2023/01/10 12:30:42;;;;;;;24.65;4.78;;;6.80;99.90;;;;;;5110038;28;20484;-62
2023/01/10 12:33:17;;;;;;;17.75;4.05;;;6.80;99.90;;;;;;5104471;28;20023;-62
2023/01/10 12:35:54;;;;;;;22.77;3.88;;;6.80;99.90;;;;;;5110953;28;20472;-62
2023/01/10 12:44:40;;;;;;;23.75;4.35;;;6.80;99.90;;;;;;5111862;28;20038;-62
2023/01/10 12:47:19;;;;;;;22.23;3.85;;;6.90;99.90;;;;;;5109612;28;20053;-62
2023/01/10 12:49:56;;;;;;;22.15;3.63;;;6.90;99.90;;;;;;5107036;28;20028;-62
2023/01/10 12:52:57;;;;;;;24.20;4.13;;;6.90;99.90;;;;;;5107858;28;20118;-62
2023/01/10 12:55:26;;;;;;;17.65;4.03;;;6.90;99.90;;;;;;5089912;28;20050;-62
2023/01/10 12:57:58;;;;;;;24.50;3.75;;;6.90;99.90;;;;;;5089960;28;20019;-62
2023/01/10 13:00:42;;;;;;;22.88;3.78;;;7.00;99.90;;;;;;5105879;28;20020;-62
2023/01/10 13:03:23;;;;;;;24.02;4.43;;;7.00;99.90;;;;;;5102909;28;20144;-62
2023/01/10 13:05:50;;;;;;;17.55;3.70;;;7.00;99.90;;;;;;5094289;28;20055;-62
2023/01/10 13:08:20;;;;;;;21.15;3.53;;;7.00;99.90;;;;;;5101257;28;20059;-62
2023/01/10 13:10:48;;;;;;;19.10;3.50;;;7.00;99.90;;;;;;5105165;28;20032;-62
2023/01/10 13:13:35;;;;;;;19.85;3.60;;;7.00;99.90;;;;;;5108003;28;20024;-63
2023/01/10 13:16:22;;;;;;;23.13;4.13;;;7.10;99.90;;;;;;5088083;28;20111;-62
2023/01/10 13:19:21;;;;;;;21.27;3.90;;;7.00;99.90;;;;;;5090250;28;20016;-62